Private Wetterstation Wechselburg
Wetterdaten: Mittwoch, 15.09.2021
Datum Zeit Temp. +2m Bodentemp. Temp.+5cm Temp. Wind Windchill X Diff Temp. Feuchte +2m Feuchte +5cm Luftdruck Regen Wind Richtung Richtung Sonnenschein Taupunkt Windchill Windben
15.09.2021 00:00 15,5 C 19,0 C 15,3 C 15,3 C 15,0 C 0,0 C 87 % 89 % 1012,6 hPa 0,0 l/m 0,0 km/h (0 Bft) O-NO 67 0 min 13,3 C 15,0 C 0,0 km/h (0 Bft)
15.09.2021 00:05 15,3 C 19,0 C 15,1 C 15,2 C 14,9 C 0,0 C 87 % 89 % 1012,6 hPa 0,0 l/m 0,0 km/h (0 Bft) O-NO 67 0 min 13,1 C 14,9 C 0,0 km/h (0 Bft)
15.09.2021 00:10 15,3 C 19,0 C 15,1 C 15,2 C 14,9 C 0,0 C 87 % 90 % 1012,6 hPa 0,0 l/m 0,0 km/h (0 Bft) O-NO 67 0 min 13,1 C 14,9 C 0,0 km/h (0 Bft)
15.09.2021 00:15 15,2 C 19,1 C 15,1 C 15,1 C 14,8 C 0,0 C 87 % 90 % 1012,8 hPa 0,0 l/m 0,0 km/h (0 Bft) O-NO 67 0 min 13,0 C 14,8 C 0,0 km/h (0 Bft)
15.09.2021 00:20 15,2 C 19,0 C 15,0 C 15,0 C 14,7 C 0,0 C 87 % 90 % 1012,8 hPa 0,0 l/m 0,0 km/h (0 Bft) O-NO 67 0 min 13,0 C 14,7 C 0,0 km/h (0 Bft)
15.09.2021 00:25 15,2 C 19,1 C 15,0 C 15,0 C 14,7 C 0,0 C 87 % 90 % 1012,8 hPa 0,0 l/m 0,0 km/h (0 Bft) O-NO 67 0 min 13,0 C 14,7 C 0,0 km/h (0 Bft)
15.09.2021 00:30 15,2 C 19,1 C 15,0 C 15,0 C 14,6 C 0,0 C 87 % 90 % 1012,8 hPa 0,0 l/m 0,0 km/h (0 Bft) O-NO 67 0 min 13,0 C 14,6 C 0,0 km/h (0 Bft)
15.09.2021 00:35 15,1 C 19,0 C 15,0 C 14,9 C 14,6 C 0,0 C 87 % 90 % 1012,8 hPa 0,0 l/m 0,0 km/h (0 Bft) O-NO 67 0 min 13,0 C 14,6 C 0,0 km/h (0 Bft)
15.09.2021 00:40 15,1 C 19,1 C 14,9 C 14,9 C 14,6 C 0,0 C 87 % 90 % 1012,8 hPa 0,0 l/m 0,0 km/h (0 Bft) O-NO 67 0 min 13,0 C 14,6 C 0,0 km/h (0 Bft)
15.09.2021 00:45 15,1 C 19,0 C 14,9 C 14,9 C 14,5 C 0,0 C 87 % 90 % 1012,8 hPa 0,0 l/m 0,0 km/h (0 Bft) O-NO 67 0 min 13,0 C 14,5 C 0,0 km/h (0 Bft)
15.09.2021 00:50 15,0 C 19,0 C 14,9 C 14,8 C 14,5 C 0,0 C 87 % 90 % 1012,8 hPa 0,0 l/m 0,0 km/h (0 Bft) O-NO 67 0 min 12,9 C 14,5 C 0,0 km/h (0 Bft)
15.09.2021 00:55 14,9 C 19,0 C 14,7 C 14,7 C 14,4 C 0,0 C 87 % 90 % 1013,0 hPa 0,0 l/m 0,0 km/h (0 Bft) O-NO 67 0 min 12,8 C 14,4 C 0,0 km/h (0 Bft)
15.09.2021 01:00 14,9 C 19,0 C 14,7 C 14,7 C 14,4 C 0,0 C 87 % 90 % 1013,0 hPa 0,0 l/m 0,0 km/h (0 Bft) O-NO 67 0 min 12,8 C 14,4 C 0,0 km/h (0 Bft)
15.09.2021 01:05 14,8 C 19,0 C 14,6 C 14,7 C 14,4 C 0,0 C 87 % 90 % 1013,0 hPa 0,0 l/m 0,0 km/h (0 Bft) O-NO 67 0 min 12,7 C 14,4 C 0,0 km/h (0 Bft)
15.09.2021 01:10 14,8 C 19,0 C 14,6 C 14,7 C 14,4 C 0,0 C 87 % 90 % 1013,0 hPa 0,0 l/m 0,0 km/h (0 Bft) O-NO 67 0 min 12,7 C 14,4 C 0,0 km/h (0 Bft)
15.09.2021 01:15 14,8 C 19,0 C 14,7 C 14,7 C 14,4 C 0,0 C 87 % 90 % 1012,6 hPa 0,0 l/m 0,0 km/h (0 Bft) O-NO 67 0 min 12,7 C 14,4 C 0,0 km/h (0 Bft)
15.09.2021 01:20 14,8 C 19,0 C 14,6 C 14,7 C 14,4 C 0,0 C 87 % 90 % 1012,6 hPa 0,0 l/m 0,0 km/h (0 Bft) O-NO 67 0 min 12,7 C 14,4 C 0,0 km/h (0 Bft)
15.09.2021 01:25 14,7 C 19,0 C 14,7 C 14,7 C 14,6 C 0,0 C 87 % 90 % 1012,6 hPa 0,0 l/m 0,0 km/h (0 Bft) O-NO 67 0 min 12,6 C 14,6 C 0,0 km/h (0 Bft)
15.09.2021 01:30 14,7 C 19,0 C 14,8 C 14,8 C 14,8 C 0,1 C 87 % 90 % 1012,6 hPa 0,0 l/m 0,0 km/h (0 Bft) O-NO 67 0 min 12,6 C 14,8 C 0,0 km/h (0 Bft)
15.09.2021 01:35 14,8 C 19,0 C 15,0 C 15,2 C 15,2 C 0,4 C 87 % 90 % 1012,7 hPa 0,0 l/m 0,0 km/h (0 Bft) O-NO 67 0 min 12,7 C 15,2 C 0,0 km/h (0 Bft)
15.09.2021 01:40 14,8 C 19,0 C 15,0 C 15,3 C 15,3 C 0,5 C 87 % 90 % 1012,7 hPa 0,0 l/m 0,0 km/h (0 Bft) O-NO 67 0 min 12,7 C 15,3 C 0,0 km/h (0 Bft)
15.09.2021 01:50 14,8 C 19,0 C 15,1 C 15,5 C 15,5 C 0,7 C 87 % 90 % 1012,7 hPa 0,0 l/m 0,0 km/h (0 Bft) O-NO 67 0 min 12,7 C 15,5 C 0,0 km/h (0 Bft)
15.09.2021 01:55 14,9 C 18,9 C 15,1 C 15,6 C 15,6 C 0,7 C 87 % 90 % 1012,4 hPa 0,0 l/m 0,0 km/h (0 Bft) O-NO 67 0 min 12,8 C 15,6 C 0,0 km/h (0 Bft)
15.09.2021 02:00 14,9 C 18,9 C 15,2 C 15,6 C 15,6 C 0,7 C 87 % 90 % 1012,4 hPa 0,0 l/m 0,0 km/h (0 Bft) O-NO 67 0 min 12,8 C 15,6 C 0,0 km/h (0 Bft)
15.09.2021 02:05 15,0 C 18,9 C 15,2 C 15,7 C 15,7 C 0,7 C 87 % 90 % 1012,4 hPa 0,0 l/m 0,0 km/h (0 Bft) O-NO 67 0 min 12,9 C 15,7 C 0,0 km/h (0 Bft)
15.09.2021 02:10 15,1 C 18,9 C 15,2 C 15,6 C 15,6 C 0,5 C 87 % 90 % 1012,4 hPa 0,0 l/m 0,0 km/h (0 Bft) O-NO 67 0 min 13,0 C 15,6 C 0,0 km/h (0 Bft)
15.09.2021 02:15 15,1 C 18,9 C 15,1 C 15,6 C 15,6 C 0,5 C 87 % 90 % 1012,2 hPa 0,0 l/m 0,0 km/h (0 Bft) O-NO 67 0 min 13,0 C 15,6 C 0,0 km/h (0 Bft)
15.09.2021 02:20 15,1 C 18,9 C 15,1 C 15,6 C 15,6 C 0,5 C 87 % 90 % 1012,2 hPa 0,0 l/m 0,0 km/h (0 Bft) O-NO 67 0 min 13,0 C 15,6 C 0,0 km/h (0 Bft)
15.09.2021 02:25 15,2 C 18,9 C 15,2 C 15,6 C 15,6 C 0,4 C 87 % 90 % 1012,2 hPa 0,0 l/m 0,0 km/h (0 Bft) O-NO 67 0 min 13,0 C 15,6 C 0,0 km/h (0 Bft)
15.09.2021 02:30 15,2 C 18,9 C 15,2 C 15,6 C 15,6 C 0,4 C 87 % 90 % 1012,2 hPa 0,0 l/m 0,0 km/h (0 Bft) O-NO 67 0 min 13,0 C 15,6 C 0,0 km/h (0 Bft)
15.09.2021 02:35 15,3 C 18,9 C 15,3 C 15,8 C 15,8 C 0,5 C 87 % 90 % 1012,4 hPa 0,0 l/m 0,0 km/h (0 Bft) O-NO 67 0 min 13,1 C 15,8 C 0,0 km/h (0 Bft)
15.09.2021 02:40 15,2 C 18,9 C 15,3 C 15,8 C 15,8 C 0,6 C 87 % 90 % 1012,4 hPa 0,0 l/m 0,0 km/h (0 Bft) O-NO 67 0 min 13,0 C 15,8 C 0,0 km/h (0 Bft)
15.09.2021 02:45 15,2 C 18,8 C 15,3 C 16,0 C 16,0 C 0,8 C 87 % 90 % 1012,4 hPa 0,0 l/m 0,0 km/h (0 Bft) O-NO 67 0 min 13,0 C 16,0 C 0,0 km/h (0 Bft)
15.09.2021 02:50 15,3 C 18,9 C 15,3 C 16,0 C 16,0 C 0,7 C 87 % 90 % 1012,4 hPa 0,0 l/m 0,0 km/h (0 Bft) O-NO 67 0 min 13,1 C 16,0 C 0,0 km/h (0 Bft)
15.09.2021 02:55 15,3 C 18,8 C 15,3 C 16,0 C 16,0 C 0,7 C 87 % 90 % 1012,8 hPa 0,0 l/m 0,0 km/h (0 Bft) O-NO 67 0 min 13,1 C 16,0 C 0,0 km/h (0 Bft)
15.09.2021 03:00 15,3 C 18,8 C 15,3 C 16,0 C 16,0 C 0,7 C 87 % 90 % 1012,8 hPa 0,0 l/m 0,0 km/h (0 Bft) O-NO 67 0 min 13,1 C 16,0 C 0,0 km/h (0 Bft)
15.09.2021 03:05 15,5 C 18,8 C 15,3 C 16,0 C 16,0 C 0,5 C 87 % 90 % 1012,8 hPa 0,0 l/m 0,0 km/h (0 Bft) O-NO 67 0 min 13,3 C 16,0 C 0,0 km/h (0 Bft)
15.09.2021 03:10 15,4 C 18,8 C 15,4 C 16,0 C 16,0 C 0,6 C 87 % 90 % 1012,8 hPa 0,0 l/m 0,0 km/h (0 Bft) O-NO 67 0 min 13,2 C 16,0 C 0,0 km/h (0 Bft)
15.09.2021 03:15 15,5 C 18,8 C 15,4 C 16,0 C 16,0 C 0,5 C 87 % 90 % 1011,9 hPa 0,0 l/m 0,0 km/h (0 Bft) O-NO 67 0 min 13,3 C 16,0 C 0,0 km/h (0 Bft)
15.09.2021 03:20 15,5 C 18,8 C 15,4 C 16,0 C 16,0 C 0,5 C 87 % 90 % 1011,9 hPa 0,0 l/m 0,0 km/h (0 Bft) O-NO 67 0 min 13,3 C 16,0 C 0,0 km/h (0 Bft)
15.09.2021 03:25 15,5 C 18,7 C 15,4 C 16,1 C 16,1 C 0,6 C 87 % 90 % 1011,9 hPa 0,0 l/m 0,0 km/h (0 Bft) O-NO 67 0 min 13,3 C 16,1 C 0,0 km/h (0 Bft)
15.09.2021 03:30 15,5 C 18,8 C 15,4 C 16,1 C 16,1 C 0,6 C 87 % 90 % 1011,9 hPa 0,0 l/m 0,0 km/h (0 Bft) O-NO 67 0 min 13,3 C 16,1 C 0,0 km/h (0 Bft)
15.09.2021 03:35 15,6 C 18,8 C 15,4 C 16,0 C 16,0 C 0,4 C 87 % 90 % 1011,9 hPa 0,0 l/m 0,0 km/h (0 Bft) O-NO 67 0 min 13,4 C 16,0 C 0,0 km/h (0 Bft)
15.09.2021 03:40 15,6 C 18,8 C 15,4 C 16,0 C 16,0 C 0,4 C 87 % 90 % 1011,9 hPa 0,0 l/m 0,0 km/h (0 Bft) O-NO 67 0 min 13,4 C 16,0 C 0,0 km/h (0 Bft)
15.09.2021 03:45 15,7 C 18,7 C 15,4 C 16,0 C 16,0 C 0,3 C 87 % 90 % 1011,9 hPa 0,0 l/m 0,0 km/h (0 Bft) O-NO 67 0 min 13,5 C 16,0 C 0,0 km/h (0 Bft)
15.09.2021 03:50 15,6 C 18,7 C 15,4 C 16,0 C 16,0 C 0,4 C 87 % 90 % 1011,9 hPa 0,0 l/m 0,0 km/h (0 Bft) O-NO 67 0 min 13,4 C 16,0 C 0,0 km/h (0 Bft)
15.09.2021 03:55 15,7 C 18,7 C 15,4 C 16,1 C 16,1 C 0,4 C 87 % 90 % 1011,9 hPa 0,0 l/m 0,0 km/h (0 Bft) O-NO 67 0 min 13,5 C 16,1 C 0,0 km/h (0 Bft)
15.09.2021 04:00 15,6 C 18,7 C 15,5 C 16,1 C 16,1 C 0,5 C 87 % 90 % 1011,9 hPa 0,0 l/m 0,0 km/h (0 Bft) O-NO 67 0 min 13,4 C 16,1 C 0,0 km/h (0 Bft)
15.09.2021 04:05 15,7 C 18,8 C 15,5 C 16,2 C 16,2 C 0,5 C 87 % 90 % 1011,9 hPa 0,0 l/m 0,0 km/h (0 Bft) O-NO 67 0 min 13,5 C 16,2 C 0,0 km/h (0 Bft)
15.09.2021 04:10 15,9 C 18,8 C 15,5 C 16,3 C 16,3 C 0,4 C 87 % 90 % 1011,9 hPa 0,0 l/m 0,0 km/h (0 Bft) O-NO 67 0 min 13,7 C 16,3 C 0,0 km/h (0 Bft)
15.09.2021 04:15 15,9 C 18,8 C 15,5 C 16,3 C 16,3 C 0,4 C 87 % 90 % 1011,8 hPa 0,0 l/m 0,0 km/h (0 Bft) O-NO 67 0 min 13,7 C 16,3 C 0,0 km/h (0 Bft)
15.09.2021 04:20 15,9 C 18,8 C 15,5 C 16,3 C 16,3 C 0,4 C 87 % 90 % 1011,8 hPa 0,0 l/m 0,0 km/h (0 Bft) O-NO 67 0 min 13,7 C 16,3 C 0,0 km/h (0 Bft)
15.09.2021 04:25 15,9 C 18,8 C 15,5 C 16,2 C 16,2 C 0,3 C 87 % 90 % 1011,8 hPa 0,0 l/m 0,0 km/h (0 Bft) O-NO 67 0 min 13,7 C 16,2 C 0,0 km/h (0 Bft)
15.09.2021 04:30 15,9 C 18,7 C 15,5 C 16,2 C 16,2 C 0,3 C 87 % 90 % 1011,8 hPa 0,0 l/m 0,0 km/h (0 Bft) O-NO 67 0 min 13,7 C 16,2 C 0,0 km/h (0 Bft)
15.09.2021 04:35 15,9 C 18,7 C 15,5 C 16,2 C 16,2 C 0,3 C 87 % 90 % 1011,6 hPa 0,0 l/m 0,0 km/h (0 Bft) O-NO 67 0 min 13,7 C 16,2 C 0,0 km/h (0 Bft)
15.09.2021 04:40 15,9 C 18,7 C 15,5 C 16,2 C 16,2 C 0,3 C 87 % 90 % 1011,6 hPa 0,0 l/m 0,0 km/h (0 Bft) O-NO 67 0 min 13,7 C 16,2 C 0,0 km/h (0 Bft)
15.09.2021 04:45 15,9 C 18,7 C 15,5 C 16,1 C 16,1 C 0,2 C 87 % 90 % 1011,6 hPa 0,0 l/m 0,0 km/h (0 Bft) O-NO 67 0 min 13,7 C 16,1 C 0,0 km/h (0 Bft)
15.09.2021 04:50 15,9 C 18,7 C 15,5 C 16,1 C 16,1 C 0,2 C 87 % 90 % 1011,6 hPa 0,0 l/m 0,0 km/h (0 Bft) O-NO 67 0 min 13,7 C 16,1 C 0,0 km/h (0 Bft)
15.09.2021 04:55 16,1 C 18,7 C 15,5 C 16,2 C 16,2 C 0,1 C 87 % 90 % 1011,4 hPa 0,0 l/m 0,0 km/h (0 Bft) O-NO 67 0 min 13,9 C 16,2 C 0,0 km/h (0 Bft)
15.09.2021 05:00 16,0 C 18,7 C 15,5 C 16,1 C 16,1 C 0,1 C 87 % 90 % 1011,4 hPa 0,0 l/m 0,0 km/h (0 Bft) O-NO 67 0 min 13,8 C 16,1 C 0,0 km/h (0 Bft)
15.09.2021 05:05 16,0 C 18,7 C 15,5 C 16,1 C 16,1 C 0,1 C 87 % 90 % 1011,4 hPa 0,0 l/m 0,0 km/h (0 Bft) O-NO 67 0 min 13,8 C 16,1 C 0,0 km/h (0 Bft)
15.09.2021 05:10 16,0 C 18,7 C 15,5 C 16,1 C 16,1 C 0,1 C 87 % 90 % 1011,4 hPa 0,0 l/m 0,0 km/h (0 Bft) O-NO 67 0 min 13,8 C 16,1 C 0,0 km/h (0 Bft)
15.09.2021 05:15 16,0 C 18,7 C 15,5 C 16,1 C 16,1 C 0,1 C 87 % 90 % 1011,4 hPa 0,0 l/m 0,0 km/h (0 Bft) O-NO 67 0 min 13,8 C 16,1 C 0,0 km/h (0 Bft)
15.09.2021 05:20 16,0 C 18,7 C 15,5 C 16,1 C 16,1 C 0,1 C 87 % 90 % 1011,4 hPa 0,0 l/m 0,0 km/h (0 Bft) O-NO 67 0 min 13,8 C 16,1 C 0,0 km/h (0 Bft)
15.09.2021 05:25 16,0 C 18,7 C 15,5 C 16,1 C 16,1 C 0,1 C 87 % 90 % 1011,4 hPa 0,0 l/m 0,0 km/h (0 Bft) O-NO 67 0 min 13,8 C 16,1 C 0,0 km/h (0 Bft)
15.09.2021 05:30 16,0 C 18,7 C 15,5 C 16,1 C 16,1 C 0,1 C 87 % 90 % 1011,4 hPa 0,0 l/m 0,0 km/h (0 Bft) O-NO 67 0 min 13,8 C 16,1 C 0,0 km/h (0 Bft)
15.09.2021 05:35 15,9 C 18,7 C 15,5 C 16,0 C 16,0 C 0,1 C 87 % 90 % 1011,1 hPa 0,0 l/m 0,0 km/h (0 Bft) O-NO 67 0 min 13,7 C 16,0 C 0,0 km/h (0 Bft)
15.09.2021 05:40 15,9 C 18,7 C 15,5 C 15,9 C 15,9 C 0,0 C 87 % 90 % 1011,1 hPa 0,0 l/m 0,0 km/h (0 Bft) O-NO 67 0 min 13,7 C 15,9 C 0,0 km/h (0 Bft)
15.09.2021 05:45 15,9 C 18,7 C 15,4 C 15,9 C 15,8 C 0,0 C 87 % 90 % 1011,1 hPa 0,0 l/m 0,0 km/h (0 Bft) O-NO 67 0 min 13,7 C 15,8 C 0,0 km/h (0 Bft)
15.09.2021 05:50 15,8 C 18,7 C 15,4 C 15,8 C 15,7 C 0,0 C 87 % 90 % 1011,1 hPa 0,0 l/m 0,0 km/h (0 Bft) O-NO 67 0 min 13,6 C 15,7 C 0,0 km/h (0 Bft)
15.09.2021 05:55 15,9 C 18,7 C 15,3 C 15,8 C 15,6 C 0,0 C 87 % 90 % 1011,2 hPa 0,0 l/m 0,0 km/h (0 Bft) O-NO 67 0 min 13,7 C 15,6 C 0,0 km/h (0 Bft)
15.09.2021 06:00 15,8 C 18,7 C 15,3 C 15,7 C 15,5 C 0,0 C 87 % 90 % 1011,2 hPa 0,0 l/m 0,0 km/h (0 Bft) O-NO 67 0 min 13,6 C 15,5 C 0,0 km/h (0 Bft)
15.09.2021 06:05 15,7 C 18,7 C 15,2 C 15,6 C 15,4 C 0,0 C 87 % 90 % 1011,2 hPa 0,0 l/m 0,0 km/h (0 Bft) O-NO 67 0 min 13,5 C 15,4 C 0,0 km/h (0 Bft)
15.09.2021 06:10 15,7 C 18,8 C 15,1 C 15,6 C 15,3 C 0,0 C 87 % 90 % 1011,2 hPa 0,0 l/m 0,0 km/h (0 Bft) O-NO 67 0 min 13,5 C 15,3 C 0,0 km/h (0 Bft)
15.09.2021 06:15 15,7 C 18,8 C 15,1 C 15,5 C 15,2 C 0,0 C 87 % 90 % 1010,9 hPa 0,0 l/m 0,0 km/h (0 Bft) O-NO 67 0 min 13,5 C 15,2 C 0,0 km/h (0 Bft)
15.09.2021 06:20 15,6 C 18,8 C 15,0 C 15,4 C 15,1 C 0,0 C 87 % 90 % 1010,9 hPa 0,0 l/m 0,0 km/h (0 Bft) O-NO 67 0 min 13,4 C 15,1 C 0,0 km/h (0 Bft)
15.09.2021 06:25 15,5 C 18,8 C 15,0 C 15,4 C 15,1 C 0,0 C 87 % 90 % 1010,9 hPa 0,0 l/m 0,0 km/h (0 Bft) O-NO 67 0 min 13,3 C 15,1 C 0,0 km/h (0 Bft)
15.09.2021 06:30 15,5 C 18,8 C 15,0 C 15,4 C 15,1 C 0,0 C 87 % 90 % 1010,9 hPa 0,0 l/m 0,0 km/h (0 Bft) O-NO 67 0 min 13,3 C 15,1 C 0,0 km/h (0 Bft)
15.09.2021 06:35 15,4 C 18,8 C 14,9 C 15,3 C 15,1 C 0,0 C 87 % 90 % 1010,9 hPa 0,0 l/m 0,0 km/h (0 Bft) O-NO 67 0 min 13,2 C 15,1 C 0,0 km/h (0 Bft)
15.09.2021 06:40 15,3 C 18,8 C 14,8 C 15,2 C 15,1 C 0,0 C 87 % 90 % 1010,9 hPa 0,0 l/m 0,0 km/h (0 Bft) O-NO 67 0 min 13,1 C 15,1 C 0,0 km/h (0 Bft)
15.09.2021 06:45 15,3 C 18,8 C 14,9 C 15,3 C 15,2 C 0,0 C 87 % 91 % 1010,9 hPa 0,0 l/m 0,0 km/h (0 Bft) O-NO 67 0 min 13,1 C 15,2 C 0,0 km/h (0 Bft)
15.09.2021 06:50 15,3 C 18,8 C 14,9 C 15,3 C 15,3 C 0,0 C 87 % 91 % 1010,9 hPa 0,0 l/m 0,0 km/h (0 Bft) O-NO 67 0 min 13,1 C 15,3 C 0,0 km/h (0 Bft)
15.09.2021 06:55 15,2 C 18,7 C 15,0 C 15,3 C 15,3 C 0,1 C 87 % 91 % 1010,8 hPa 0,0 l/m 0,0 km/h (0 Bft) O-NO 67 0 min 13,0 C 15,3 C 0,0 km/h (0 Bft)
15.09.2021 07:00 15,2 C 18,8 C 15,0 C 15,3 C 15,3 C 0,1 C 87 % 91 % 1010,8 hPa 0,0 l/m 0,0 km/h (0 Bft) O-NO 67 0 min 13,0 C 15,3 C 0,0 km/h (0 Bft)
15.09.2021 07:05 15,3 C 18,7 C 14,9 C 15,3 C 15,3 C 0,0 C 87 % 91 % 1010,8 hPa 0,0 l/m 0,0 km/h (0 Bft) O-NO 67 0 min 13,1 C 15,3 C 0,0 km/h (0 Bft)
15.09.2021 07:10 15,3 C 18,7 C 14,9 C 15,3 C 15,3 C 0,0 C 87 % 91 % 1010,8 hPa 0,0 l/m 0,0 km/h (0 Bft) O-NO 67 0 min 13,1 C 15,3 C 0,0 km/h (0 Bft)
15.09.2021 07:15 15,2 C 18,7 C 15,0 C 15,5 C 15,5 C 0,3 C 87 % 91 % 1010,6 hPa 0,0 l/m 0,0 km/h (0 Bft) O-NO 67 0 min 13,0 C 15,5 C 0,0 km/h (0 Bft)
15.09.2021 07:20 15,2 C 18,7 C 15,0 C 15,6 C 15,6 C 0,4 C 87 % 91 % 1010,6 hPa 0,0 l/m 0,0 km/h (0 Bft) O-NO 67 0 min 13,0 C 15,6 C 0,0 km/h (0 Bft)
15.09.2021 07:25 15,3 C 18,7 C 15,1 C 15,7 C 15,7 C 0,4 C 87 % 91 % 1010,6 hPa 0,0 l/m 0,0 km/h (0 Bft) O-NO 67 0 min 13,1 C 15,7 C 0,0 km/h (0 Bft)
15.09.2021 07:30 15,3 C 18,7 C 15,1 C 15,7 C 15,7 C 0,4 C 87 % 91 % 1010,6 hPa 0,0 l/m 0,0 km/h (0 Bft) O-NO 67 0 min 13,1 C 15,7 C 0,0 km/h (0 Bft)
15.09.2021 07:35 15,2 C 18,7 C 15,1 C 15,8 C 15,8 C 0,6 C 87 % 91 % 1011,0 hPa 0,0 l/m 0,0 km/h (0 Bft) O-NO 67 0 min 13,0 C 15,8 C 0,0 km/h (0 Bft)
15.09.2021 07:40 15,3 C 18,7 C 15,2 C 15,9 C 15,9 C 0,6 C 87 % 91 % 1011,0 hPa 0,0 l/m 0,0 km/h (0 Bft) O-NO 67 0 min 13,1 C 15,9 C 0,0 km/h (0 Bft)
15.09.2021 07:45 15,3 C 18,7 C 15,3 C 16,1 C 16,1 C 0,8 C 87 % 91 % 1011,0 hPa 0,0 l/m 0,0 km/h (0 Bft) O-NO 67 0 min 13,1 C 16,1 C 0,0 km/h (0 Bft)
15.09.2021 07:50 15,3 C 18,7 C 15,4 C 16,3 C 16,3 C 1,0 C 87 % 91 % 1011,0 hPa 0,0 l/m 0,0 km/h (0 Bft) O-NO 67 0 min 13,1 C 16,3 C 0,0 km/h (0 Bft)
15.09.2021 07:55 15,5 C 18,7 C 15,5 C 16,6 C 16,6 C 1,1 C 88 % 91 % 1010,9 hPa 0,0 l/m 0,0 km/h (0 Bft) O-NO 67 0 min 13,5 C 16,6 C 0,0 km/h (0 Bft)
15.09.2021 08:00 15,5 C 18,7 C 15,6 C 16,8 C 16,8 C 1,3 C 87 % 91 % 1010,9 hPa 0,0 l/m 0,0 km/h (0 Bft) O-NO 67 0 min 13,3 C 16,8 C 0,0 km/h (0 Bft)
15.09.2021 08:05 15,6 C 18,6 C 15,7 C 17,0 C 17,0 C 1,4 C 87 % 91 % 1010,9 hPa 0,0 l/m 0,0 km/h (0 Bft) O-NO 67 0 min 13,4 C 17,0 C 0,0 km/h (0 Bft)
15.09.2021 08:10 15,7 C 18,6 C 15,8 C 17,0 C 17,0 C 1,3 C 87 % 91 % 1010,9 hPa 0,0 l/m 0,0 km/h (0 Bft) O-NO 67 0 min 13,5 C 17,0 C 0,0 km/h (0 Bft)
15.09.2021 08:15 15,9 C 18,6 C 15,9 C 16,9 C 16,9 C 1,0 C 87 % 91 % 1010,9 hPa 0,0 l/m 0,0 km/h (0 Bft) O-NO 67 0 min 13,7 C 16,9 C 0,0 km/h (0 Bft)
15.09.2021 08:20 15,8 C 18,6 C 15,9 C 16,8 C 16,8 C 1,0 C 87 % 91 % 1010,9 hPa 0,0 l/m 0,0 km/h (0 Bft) O-NO 67 0 min 13,6 C 16,8 C 0,0 km/h (0 Bft)
15.09.2021 08:25 16,0 C 18,6 C 16,0 C 16,9 C 16,9 C 0,9 C 87 % 91 % 1010,9 hPa 0,0 l/m 0,0 km/h (0 Bft) O-NO 67 0 min 13,8 C 16,9 C 0,0 km/h (0 Bft)
15.09.2021 08:30 16,0 C 18,6 C 16,1 C 17,2 C 17,2 C 1,2 C 87 % 91 % 1010,9 hPa 0,0 l/m 0,0 km/h (0 Bft) O-NO 67 0 min 13,8 C 17,2 C 0,0 km/h (0 Bft)
15.09.2021 08:35 16,1 C 18,6 C 16,2 C 17,9 C 17,9 C 1,8 C 87 % 91 % 1011,0 hPa 0,0 l/m 0,0 km/h (0 Bft) O-NO 67 0 min 13,9 C 17,9 C 0,0 km/h (0 Bft)
15.09.2021 08:40 16,3 C 18,7 C 16,3 C 18,0 C 18,0 C 1,7 C 87 % 91 % 1011,0 hPa 0,0 l/m 0,0 km/h (0 Bft) O-NO 67 0 min 14,1 C 18,0 C 0,0 km/h (0 Bft)
15.09.2021 08:45 16,4 C 18,7 C 16,5 C 18,5 C 18,5 C 2,1 C 87 % 91 % 1011,0 hPa 0,0 l/m 0,0 km/h (0 Bft) O-NO 67 0 min 14,2 C 18,5 C 0,0 km/h (0 Bft)
15.09.2021 08:50 16,5 C 18,7 C 16,7 C 18,8 C 18,8 C 2,3 C 87 % 91 % 1011,0 hPa 0,0 l/m 0,0 km/h (0 Bft) O-NO 67 0 min 14,3 C 18,8 C 0,0 km/h (0 Bft)
15.09.2021 08:55 16,7 C 18,6 C 16,8 C 19,5 C 19,5 C 2,8 C 87 % 91 % 1010,8 hPa 0,0 l/m 0,0 km/h (0 Bft) O-NO 67 0 min 14,5 C 19,5 C 0,0 km/h (0 Bft)
15.09.2021 09:00 16,8 C 18,5 C 16,8 C 19,8 C 19,8 C 3,0 C 87 % 91 % 1010,8 hPa 0,0 l/m 0,0 km/h (0 Bft) O-NO 67 0 min 14,6 C 19,8 C 0,0 km/h (0 Bft)
15.09.2021 09:05 17,0 C 18,5 C 17,0 C 20,2 C 20,2 C 3,2 C 87 % 91 % 1010,8 hPa 0,0 l/m 0,0 km/h (0 Bft) O-NO 67 0 min 14,8 C 20,2 C 0,0 km/h (0 Bft)
15.09.2021 09:10 17,2 C 18,5 C 17,1 C 20,5 C 20,5 C 3,3 C 87 % 91 % 1010,8 hPa 0,0 l/m 0,0 km/h (0 Bft) O-NO 67 5 min 15,0 C 20,5 C 0,0 km/h (0 Bft)
15.09.2021 09:15 17,5 C 18,5 C 17,2 C 20,9 C 20,9 C 3,4 C 87 % 91 % 1010,9 hPa 0,0 l/m 0,0 km/h (0 Bft) O-NO 67 5 min 15,3 C 20,9 C 0,0 km/h (0 Bft)
15.09.2021 09:20 17,7 C 18,5 C 17,3 C 21,2 C 21,2 C 3,5 C 87 % 90 % 1010,9 hPa 0,0 l/m 0,0 km/h (0 Bft) O-NO 67 5 min 15,5 C 21,2 C 0,0 km/h (0 Bft)
15.09.2021 09:25 18,2 C 18,5 C 17,6 C 21,8 C 21,8 C 3,6 C 87 % 90 % 1010,9 hPa 0,0 l/m 0,0 km/h (0 Bft) O-NO 67 5 min 16,0 C 21,8 C 0,0 km/h (0 Bft)
15.09.2021 09:30 18,5 C 18,5 C 17,8 C 22,3 C 22,3 C 3,8 C 87 % 90 % 1010,9 hPa 0,0 l/m 0,0 km/h (0 Bft) O-NO 67 5 min 16,3 C 22,3 C 0,0 km/h (0 Bft)
15.09.2021 09:35 18,9 C 18,5 C 18,0 C 22,9 C 22,9 C 4,0 C 87 % 90 % 1010,8 hPa 0,0 l/m 0,0 km/h (0 Bft) O-NO 67 5 min 16,7 C 22,9 C 0,0 km/h (0 Bft)
15.09.2021 09:40 19,1 C 18,4 C 18,2 C 22,9 C 22,9 C 3,8 C 86 % 89 % 1010,8 hPa 0,0 l/m 0,0 km/h (0 Bft) O-NO 67 5 min 16,7 C 22,9 C 0,0 km/h (0 Bft)
15.09.2021 09:45 19,5 C 18,4 C 18,4 C 22,9 C 22,9 C 3,4 C 86 % 89 % 1010,8 hPa 0,0 l/m 0,0 km/h (0 Bft) O-NO 67 5 min 17,1 C 22,9 C 0,0 km/h (0 Bft)
15.09.2021 09:50 19,7 C 18,4 C 18,5 C 23,1 C 23,1 C 3,4 C 85 % 89 % 1010,8 hPa 0,0 l/m 0,0 km/h (0 Bft) O-NO 67 5 min 17,1 C 23,1 C 0,0 km/h (0 Bft)
15.09.2021 09:55 20,0 C 18,3 C 18,8 C 23,0 C 23,0 C 3,0 C 85 % 88 % 1010,7 hPa 0,0 l/m 0,0 km/h (0 Bft) O-NO 67 0 min 17,4 C 23,0 C 0,0 km/h (0 Bft)
15.09.2021 10:00 20,3 C 18,3 C 19,0 C 23,3 C 23,3 C 3,0 C 84 % 88 % 1010,7 hPa 0,0 l/m 0,0 km/h (0 Bft) O-NO 67 0 min 17,5 C 23,3 C 0,0 km/h (0 Bft)
15.09.2021 10:05 20,7 C 18,4 C 19,4 C 24,0 C 24,0 C 3,3 C 83 % 88 % 1010,7 hPa 0,0 l/m 0,0 km/h (0 Bft) N-NO 22 5 min 17,7 C 24,0 C 2,3 km/h (1 Bft)
15.09.2021 10:10 20,9 C 18,4 C 19,5 C 24,2 C 24,2 C 3,3 C 82 % 87 % 1010,7 hPa 0,0 l/m 0,0 km/h (0 Bft) N-NO 22 5 min 17,7 C 24,2 C 0,0 km/h (0 Bft)
15.09.2021 10:15 21,2 C 18,4 C 19,7 C 24,3 C 24,3 C 3,1 C 81 % 86 % 1010,8 hPa 0,0 l/m 0,0 km/h (0 Bft) N-NO 22 0 min 17,8 C 24,3 C 0,0 km/h (0 Bft)
15.09.2021 10:25 21,5 C 18,4 C 20,0 C 24,2 C 24,2 C 2,7 C 80 % 85 % 1010,8 hPa 0,0 l/m 0,0 km/h (0 Bft) N-NO 22 0 min 17,9 C 24,2 C 0,0 km/h (0 Bft)
15.09.2021 10:30 21,6 C 18,4 C 20,0 C 24,2 C 24,2 C 2,6 C 79 % 86 % 1010,8 hPa 0,0 l/m 0,0 km/h (0 Bft) N-NO 22 0 min 17,8 C 24,2 C 0,0 km/h (0 Bft)
15.09.2021 10:35 21,7 C 18,4 C 20,1 C 23,9 C 23,9 C 2,2 C 79 % 85 % 1010,8 hPa 0,0 l/m 0,0 km/h (0 Bft) N-NO 22 0 min 17,9 C 23,9 C 0,0 km/h (0 Bft)
15.09.2021 10:40 21,8 C 18,4 C 20,0 C 23,6 C 23,6 C 1,8 C 79 % 85 % 1010,8 hPa 0,0 l/m 0,0 km/h (0 Bft) N-NO 22 0 min 18,0 C 23,6 C 0,0 km/h (0 Bft)
15.09.2021 10:45 21,6 C 18,4 C 19,8 C 22,9 C 22,9 C 1,3 C 78 % 84 % 1010,8 hPa 0,0 l/m 0,0 km/h (0 Bft) N-NO 22 0 min 17,6 C 22,9 C 0,0 km/h (0 Bft)
15.09.2021 10:50 21,6 C 18,5 C 19,7 C 22,5 C 22,5 C 0,9 C 78 % 85 % 1010,8 hPa 0,0 l/m 0,0 km/h (0 Bft) N-NO 22 0 min 17,6 C 22,5 C 0,0 km/h (0 Bft)
15.09.2021 10:55 21,4 C 18,5 C 19,5 C 22,0 C 22,0 C 0,6 C 78 % 85 % 1011,0 hPa 0,0 l/m 0,0 km/h (0 Bft) N-NO 22 0 min 17,4 C 22,0 C 0,0 km/h (0 Bft)
15.09.2021 11:00 21,3 C 18,5 C 19,4 C 21,7 C 21,7 C 0,4 C 78 % 85 % 1011,0 hPa 0,0 l/m 0,0 km/h (0 Bft) N-NO 22 0 min 17,3 C 21,7 C 0,0 km/h (0 Bft)
15.09.2021 11:05 21,2 C 18,6 C 19,3 C 21,2 C 21,2 C 0,0 C 78 % 86 % 1011,0 hPa 0,0 l/m 0,0 km/h (0 Bft) N-NO 22 0 min 17,2 C 21,2 C 0,0 km/h (0 Bft)
15.09.2021 11:10 21,3 C 18,7 C 19,1 C 21,0 C 20,3 C 0,0 C 78 % 87 % 1011,0 hPa 0,0 l/m 0,0 km/h (0 Bft) N-NO 22 0 min 17,3 C 20,3 C 0,0 km/h (0 Bft)
15.09.2021 11:15 21,0 C 18,8 C 18,8 C 20,5 C 19,4 C 0,0 C 80 % 88 % 1011,1 hPa 0,7 l/m 0,0 km/h (0 Bft) N-NO 22 0 min 17,4 C 19,4 C 0,0 km/h (0 Bft)
15.09.2021 11:20 20,8 C 18,8 C 18,6 C 20,2 C 19,1 C 0,0 C 80 % 89 % 1011,1 hPa 0,0 l/m 0,0 km/h (0 Bft) N-NO 22 0 min 17,2 C 19,1 C 0,0 km/h (0 Bft)
15.09.2021 11:25 20,7 C 18,9 C 18,5 C 20,2 C 19,1 C 0,0 C 82 % 90 % 1011,1 hPa 0,0 l/m 0,0 km/h (0 Bft) N-NO 22 0 min 17,5 C 19,1 C 0,0 km/h (0 Bft)
15.09.2021 11:30 20,7 C 18,9 C 18,6 C 20,2 C 19,1 C 0,0 C 82 % 91 % 1011,1 hPa 0,0 l/m 0,0 km/h (0 Bft) N-NO 22 0 min 17,5 C 19,1 C 0,0 km/h (0 Bft)
15.09.2021 11:35 20,5 C 18,9 C 18,5 C 20,1 C 19,2 C 0,0 C 83 % 91 % 1010,9 hPa 0,0 l/m 0,0 km/h (0 Bft) N-NO 22 0 min 17,5 C 19,2 C 0,0 km/h (0 Bft)
15.09.2021 11:40 20,4 C 18,9 C 18,5 C 20,0 C 19,3 C 0,0 C 84 % 91 % 1010,9 hPa 0,0 l/m 0,0 km/h (0 Bft) N-NO 22 0 min 17,6 C 19,3 C 0,0 km/h (0 Bft)
15.09.2021 11:45 20,4 C 18,9 C 18,5 C 20,1 C 19,4 C 0,0 C 84 % 91 % 1010,9 hPa 0,0 l/m 0,0 km/h (0 Bft) N-NO 22 0 min 17,6 C 19,4 C 0,0 km/h (0 Bft)
15.09.2021 11:50 20,4 C 18,9 C 18,7 C 20,1 C 19,6 C 0,0 C 85 % 92 % 1010,9 hPa 0,0 l/m 0,0 km/h (0 Bft) N-NO 22 0 min 17,8 C 19,6 C 0,0 km/h (0 Bft)
15.09.2021 11:55 20,7 C 18,9 C 19,0 C 20,6 C 20,3 C 0,0 C 86 % 92 % 1010,8 hPa 0,0 l/m 0,0 km/h (0 Bft) N-NO 22 0 min 18,3 C 20,3 C 0,0 km/h (0 Bft)
15.09.2021 12:00 20,8 C 18,9 C 19,1 C 20,7 C 20,5 C 0,0 C 86 % 92 % 1010,8 hPa 0,0 l/m 0,0 km/h (0 Bft) N-NO 22 0 min 18,4 C 20,5 C 0,0 km/h (0 Bft)
15.09.2021 12:05 20,9 C 19,0 C 19,2 C 20,9 C 20,9 C 0,0 C 86 % 92 % 1010,8 hPa 0,0 l/m 0,0 km/h (0 Bft) N-NO 22 0 min 18,5 C 20,9 C 0,0 km/h (0 Bft)
15.09.2021 12:10 21,0 C 19,0 C 19,2 C 21,0 C 21,0 C 0,0 C 86 % 92 % 1010,8 hPa 0,0 l/m 0,0 km/h (0 Bft) N-NO 22 0 min 18,6 C 21,0 C 0,0 km/h (0 Bft)
15.09.2021 12:15 21,1 C 19,0 C 19,4 C 21,3 C 21,3 C 0,2 C 87 % 92 % 1010,6 hPa 0,0 l/m 0,0 km/h (0 Bft) N-NO 22 0 min 18,8 C 21,3 C 0,0 km/h (0 Bft)
15.09.2021 12:20 21,3 C 19,0 C 19,5 C 21,5 C 21,5 C 0,2 C 87 % 92 % 1010,6 hPa 0,0 l/m 0,0 km/h (0 Bft) N-NO 22 0 min 19,0 C 21,5 C 0,0 km/h (0 Bft)
15.09.2021 12:25 21,3 C 19,0 C 19,7 C 21,8 C 21,8 C 0,5 C 87 % 92 % 1010,6 hPa 0,0 l/m 0,0 km/h (0 Bft) N-NO 22 0 min 19,0 C 21,8 C 0,0 km/h (0 Bft)
15.09.2021 12:30 21,5 C 18,9 C 19,9 C 22,5 C 22,5 C 1,0 C 87 % 92 % 1010,6 hPa 0,0 l/m 0,0 km/h (0 Bft) N-NO 22 0 min 19,2 C 22,5 C 0,0 km/h (0 Bft)
15.09.2021 12:35 21,8 C 18,9 C 20,0 C 23,2 C 23,2 C 1,4 C 86 % 92 % 1010,3 hPa 0,0 l/m 0,0 km/h (0 Bft) N-NO 22 0 min 19,3 C 23,2 C 0,0 km/h (0 Bft)
15.09.2021 12:40 22,0 C 19,0 C 20,1 C 23,5 C 23,5 C 1,5 C 86 % 92 % 1010,3 hPa 0,0 l/m 0,0 km/h (0 Bft) N-NO 22 0 min 19,5 C 23,5 C 0,0 km/h (0 Bft)
15.09.2021 12:45 22,0 C 19,0 C 20,1 C 23,6 C 23,6 C 1,6 C 84 % 91 % 1010,3 hPa 0,0 l/m 0,0 km/h (0 Bft) N-NO 22 0 min 19,2 C 23,6 C 0,0 km/h (0 Bft)
15.09.2021 12:50 22,1 C 19,1 C 20,1 C 23,7 C 23,7 C 1,6 C 84 % 91 % 1010,3 hPa 0,0 l/m 0,0 km/h (0 Bft) N-NO 22 0 min 19,3 C 23,7 C 0,0 km/h (0 Bft)
15.09.2021 12:55 22,3 C 19,1 C 20,1 C 23,5 C 23,5 C 1,2 C 84 % 91 % 1010,6 hPa 0,0 l/m 0,0 km/h (0 Bft) N-NO 22 0 min 19,5 C 23,5 C 0,0 km/h (0 Bft)
15.09.2021 13:00 22,2 C 19,1 C 20,1 C 23,3 C 23,3 C 1,1 C 84 % 91 % 1010,6 hPa 0,0 l/m 0,0 km/h (0 Bft) N-NO 22 0 min 19,4 C 23,3 C 0,0 km/h (0 Bft)
15.09.2021 13:05 22,3 C 19,0 C 20,3 C 23,5 C 23,5 C 1,2 C 84 % 91 % 1010,6 hPa 0,0 l/m 0,0 km/h (0 Bft) N-NO 22 0 min 19,5 C 23,5 C 0,0 km/h (0 Bft)
15.09.2021 13:10 22,3 C 19,0 C 20,3 C 23,5 C 23,5 C 1,2 C 84 % 91 % 1010,6 hPa 0,0 l/m 0,0 km/h (0 Bft) N-NO 22 0 min 19,5 C 23,5 C 0,0 km/h (0 Bft)
15.09.2021 13:15 22,6 C 18,9 C 20,6 C 25,0 C 25,0 C 2,4 C 83 % 91 % 1010,3 hPa 0,0 l/m 0,0 km/h (0 Bft) N-NO 22 0 min 19,6 C 25,0 C 0,0 km/h (0 Bft)
15.09.2021 13:20 22,7 C 18,9 C 20,5 C 25,1 C 25,1 C 2,4 C 82 % 90 % 1010,3 hPa 0,0 l/m 0,0 km/h (0 Bft) N-NO 22 0 min 19,5 C 25,1 C 0,0 km/h (0 Bft)
15.09.2021 13:25 22,7 C 19,1 C 20,3 C 24,5 C 24,5 C 1,8 C 81 % 90 % 1010,3 hPa 0,0 l/m 0,0 km/h (0 Bft) N-NO 22 0 min 19,3 C 24,5 C 0,0 km/h (0 Bft)
15.09.2021 13:30 22,6 C 19,1 C 20,3 C 23,6 C 23,6 C 1,0 C 81 % 90 % 1010,3 hPa 0,0 l/m 0,0 km/h (0 Bft) N-NO 22 0 min 19,2 C 23,6 C 0,0 km/h (0 Bft)
15.09.2021 13:35 22,5 C 19,2 C 20,0 C 22,3 C 22,0 C 0,0 C 80 % 91 % 1010,4 hPa 0,7 l/m 0,2 km/h (0 Bft) W 270 0 min 18,9 C 22,0 C 2,4 km/h (1 Bft)
15.09.2021 13:40 22,3 C 19,1 C 19,9 C 21,9 C 21,1 C 0,0 C 80 % 91 % 1010,4 hPa 0,0 l/m 0,2 km/h (0 Bft) W 270 0 min 18,7 C 21,1 C 0,0 km/h (0 Bft)
15.09.2021 13:45 22,0 C 19,1 C 19,5 C 21,5 C 20,5 C 0,0 C 80 % 91 % 1010,4 hPa 0,0 l/m 0,0 km/h (0 Bft) W 270 0 min 18,4 C 20,5 C 0,0 km/h (0 Bft)
15.09.2021 13:50 21,9 C 19,2 C 19,5 C 21,4 C 20,4 C 0,0 C 80 % 91 % 1010,4 hPa 0,0 l/m 0,0 km/h (0 Bft) W 270 0 min 18,3 C 20,4 C 0,0 km/h (0 Bft)
15.09.2021 13:55 21,9 C 19,2 C 19,6 C 21,5 C 20,6 C 0,0 C 82 % 92 % 1010,1 hPa 0,0 l/m 0,0 km/h (0 Bft) W 270 0 min 18,7 C 20,6 C 0,0 km/h (0 Bft)
15.09.2021 14:00 22,0 C 19,2 C 19,7 C 21,6 C 20,7 C 0,0 C 82 % 92 % 1010,1 hPa 0,0 l/m 0,0 km/h (0 Bft) W 270 0 min 18,8 C 20,7 C 0,0 km/h (0 Bft)
15.09.2021 14:05 21,8 C 19,2 C 19,7 C 21,4 C 20,5 C 0,0 C 82 % 92 % 1010,1 hPa 0,0 l/m 0,0 km/h (0 Bft) W 270 0 min 18,6 C 20,5 C 0,0 km/h (0 Bft)
15.09.2021 14:10 21,6 C 19,2 C 19,6 C 21,2 C 20,4 C 0,0 C 83 % 92 % 1010,1 hPa 0,0 l/m 0,0 km/h (0 Bft) W 270 0 min 18,6 C 20,4 C 0,0 km/h (0 Bft)
15.09.2021 14:15 21,5 C 19,2 C 19,5 C 21,1 C 20,3 C 0,0 C 83 % 91 % 1010,0 hPa 0,0 l/m 0,0 km/h (0 Bft) W 270 0 min 18,5 C 20,3 C 0,0 km/h (0 Bft)
15.09.2021 14:20 21,5 C 19,2 C 19,6 C 21,1 C 20,3 C 0,0 C 83 % 92 % 1010,0 hPa 0,0 l/m 0,0 km/h (0 Bft) W 270 0 min 18,5 C 20,3 C 0,0 km/h (0 Bft)
15.09.2021 14:25 21,5 C 19,3 C 19,6 C 21,1 C 20,4 C 0,0 C 84 % 92 % 1010,0 hPa 0,0 l/m 0,0 km/h (0 Bft) W 270 0 min 18,7 C 20,4 C 0,0 km/h (0 Bft)
15.09.2021 14:30 21,7 C 19,3 C 19,7 C 21,4 C 20,8 C 0,0 C 84 % 92 % 1010,0 hPa 0,0 l/m 0,0 km/h (0 Bft) W 270 0 min 18,9 C 20,8 C 0,0 km/h (0 Bft)
15.09.2021 14:35 21,7 C 19,3 C 19,8 C 21,5 C 21,0 C 0,0 C 85 % 92 % 1009,9 hPa 0,0 l/m 0,0 km/h (0 Bft) W 270 0 min 19,1 C 21,0 C 0,0 km/h (0 Bft)
15.09.2021 14:40 21,8 C 19,3 C 19,9 C 21,5 C 21,0 C 0,0 C 85 % 92 % 1009,9 hPa 0,0 l/m 0,0 km/h (0 Bft) W 270 0 min 19,2 C 21,0 C 0,0 km/h (0 Bft)
15.09.2021 14:45 21,7 C 19,3 C 19,8 C 21,4 C 20,8 C 0,0 C 85 % 92 % 1009,9 hPa 0,0 l/m 0,0 km/h (0 Bft) W 270 0 min 19,1 C 20,8 C 0,0 km/h (0 Bft)
15.09.2021 14:50 21,6 C 19,3 C 19,8 C 21,3 C 20,6 C 0,0 C 85 % 92 % 1009,9 hPa 0,0 l/m 0,0 km/h (0 Bft) W 270 0 min 19,0 C 20,6 C 0,0 km/h (0 Bft)
15.09.2021 14:55 21,6 C 19,3 C 19,8 C 21,2 C 20,5 C 0,0 C 85 % 92 % 1009,9 hPa 0,0 l/m 0,0 km/h (0 Bft) W 270 0 min 19,0 C 20,5 C 0,0 km/h (0 Bft)
15.09.2021 15:00 21,6 C 19,3 C 19,8 C 21,3 C 20,6 C 0,0 C 86 % 92 % 1009,9 hPa 0,0 l/m 0,0 km/h (0 Bft) W 270 0 min 19,2 C 20,6 C 0,0 km/h (0 Bft)
15.09.2021 15:05 21,6 C 19,4 C 19,8 C 21,3 C 20,7 C 0,0 C 86 % 93 % 1009,9 hPa 0,0 l/m 0,0 km/h (0 Bft) W 270 0 min 19,2 C 20,7 C 0,0 km/h (0 Bft)
15.09.2021 15:10 21,6 C 19,4 C 19,9 C 21,3 C 20,8 C 0,0 C 86 % 93 % 1009,9 hPa 0,0 l/m 0,0 km/h (0 Bft) W 270 0 min 19,2 C 20,8 C 0,0 km/h (0 Bft)
15.09.2021 15:15 21,7 C 19,4 C 19,9 C 21,5 C 21,0 C 0,0 C 86 % 93 % 1009,7 hPa 0,0 l/m 0,0 km/h (0 Bft) W 270 0 min 19,3 C 21,0 C 0,0 km/h (0 Bft)
15.09.2021 15:20 21,6 C 19,4 C 19,9 C 21,4 C 21,0 C 0,0 C 86 % 93 % 1009,7 hPa 0,0 l/m 0,0 km/h (0 Bft) W 270 0 min 19,2 C 21,0 C 0,0 km/h (0 Bft)
15.09.2021 15:25 21,7 C 19,5 C 19,8 C 21,4 C 20,9 C 0,0 C 86 % 93 % 1009,7 hPa 0,0 l/m 0,0 km/h (0 Bft) W 270 0 min 19,3 C 20,9 C 0,0 km/h (0 Bft)
15.09.2021 15:30 21,6 C 19,5 C 19,9 C 21,3 C 20,7 C 0,0 C 86 % 93 % 1009,7 hPa 0,0 l/m 0,0 km/h (0 Bft) S 180 0 min 19,2 C 20,7 C 0,0 km/h (0 Bft)
15.09.2021 15:35 21,4 C 19,5 C 19,7 C 21,0 C 20,3 C 0,0 C 86 % 93 % 1009,6 hPa 0,0 l/m 0,2 km/h (0 Bft) S-SO 157 0 min 19,0 C 20,3 C 0,0 km/h (0 Bft)
15.09.2021 15:40 21,4 C 19,5 C 19,7 C 21,0 C 20,1 C 0,0 C 86 % 93 % 1009,6 hPa 0,7 l/m 0,2 km/h (0 Bft) S-SO 157 0 min 19,0 C 20,1 C 0,0 km/h (0 Bft)
15.09.2021 15:45 21,2 C 19,5 C 19,5 C 20,8 C 19,9 C 0,0 C 85 % 93 % 1009,6 hPa 0,0 l/m 0,0 km/h (0 Bft) S-SO 157 0 min 18,6 C 19,9 C 0,0 km/h (0 Bft)
15.09.2021 15:50 21,1 C 19,5 C 19,4 C 20,6 C 19,6 C 0,0 C 85 % 93 % 1009,6 hPa 0,0 l/m 0,0 km/h (0 Bft) S-SO 157 0 min 18,5 C 19,6 C 0,0 km/h (0 Bft)
15.09.2021 15:55 20,9 C 19,5 C 19,2 C 20,4 C 19,4 C 0,0 C 85 % 93 % 1009,1 hPa 0,0 l/m 0,0 km/h (0 Bft) S-SO 157 0 min 18,3 C 19,4 C 0,0 km/h (0 Bft)
15.09.2021 16:00 20,7 C 19,6 C 19,2 C 20,3 C 19,4 C 0,0 C 86 % 93 % 1009,1 hPa 0,0 l/m 0,0 km/h (0 Bft) S-SO 157 0 min 18,3 C 19,4 C 0,0 km/h (0 Bft)
15.09.2021 16:05 20,6 C 19,6 C 19,1 C 20,2 C 19,4 C 0,0 C 86 % 93 % 1009,1 hPa 0,0 l/m 0,0 km/h (0 Bft) S-SO 157 0 min 18,2 C 19,4 C 0,0 km/h (0 Bft)
15.09.2021 16:10 20,4 C 19,6 C 19,2 C 20,1 C 19,4 C 0,0 C 86 % 93 % 1009,1 hPa 0,0 l/m 0,0 km/h (0 Bft) S-SO 157 0 min 18,0 C 19,4 C 0,0 km/h (0 Bft)
15.09.2021 16:15 20,4 C 19,6 C 19,2 C 20,1 C 19,6 C 0,0 C 86 % 93 % 1008,8 hPa 0,0 l/m 0,0 km/h (0 Bft) S-SO 157 0 min 18,0 C 19,6 C 0,0 km/h (0 Bft)
15.09.2021 16:20 20,5 C 19,6 C 19,3 C 20,3 C 19,8 C 0,0 C 86 % 93 % 1008,8 hPa 0,0 l/m 0,0 km/h (0 Bft) S-SO 157 0 min 18,1 C 19,8 C 0,0 km/h (0 Bft)
15.09.2021 16:25 20,4 C 19,7 C 19,3 C 20,2 C 19,8 C 0,0 C 86 % 93 % 1008,8 hPa 0,0 l/m 0,0 km/h (0 Bft) S-SO 157 0 min 18,0 C 19,8 C 1,9 km/h (1 Bft)
15.09.2021 16:30 20,4 C 19,7 C 19,3 C 20,2 C 19,8 C 0,0 C 87 % 93 % 1008,8 hPa 0,0 l/m 0,0 km/h (0 Bft) S-SO 157 0 min 18,2 C 19,8 C 0,0 km/h (0 Bft)
15.09.2021 16:35 20,4 C 19,7 C 19,3 C 20,2 C 19,7 C 0,0 C 87 % 93 % 1008,9 hPa 0,0 l/m 0,0 km/h (0 Bft) S-SO 157 0 min 18,2 C 19,7 C 0,0 km/h (0 Bft)
15.09.2021 16:40 20,4 C 19,7 C 19,3 C 20,2 C 19,7 C 0,0 C 87 % 93 % 1008,9 hPa 0,0 l/m 0,0 km/h (0 Bft) S-SO 157 0 min 18,2 C 19,7 C 0,0 km/h (0 Bft)
15.09.2021 16:45 20,3 C 19,7 C 19,3 C 20,1 C 19,6 C 0,0 C 87 % 93 % 1008,9 hPa 0,0 l/m 0,0 km/h (0 Bft) S-SO 157 0 min 18,1 C 19,6 C 0,0 km/h (0 Bft)
15.09.2021 16:50 20,3 C 19,7 C 19,3 C 20,1 C 19,6 C 0,0 C 87 % 93 % 1008,9 hPa 0,0 l/m 0,0 km/h (0 Bft) S-SO 157 0 min 18,1 C 19,6 C 0,0 km/h (0 Bft)
15.09.2021 16:55 20,3 C 19,8 C 19,3 C 20,1 C 19,7 C 0,0 C 87 % 93 % 1008,7 hPa 0,0 l/m 0,0 km/h (0 Bft) S-SO 157 0 min 18,1 C 19,7 C 0,0 km/h (0 Bft)
15.09.2021 17:00 20,3 C 19,8 C 19,2 C 20,1 C 19,6 C 0,0 C 87 % 93 % 1008,7 hPa 0,0 l/m 0,2 km/h (0 Bft) S-SO 157 0 min 18,1 C 19,6 C 0,0 km/h (0 Bft)
15.09.2021 17:05 20,2 C 19,8 C 19,2 C 19,9 C 19,4 C 0,0 C 87 % 93 % 1008,7 hPa 0,0 l/m 0,2 km/h (0 Bft) S-SO 157 0 min 18,0 C 19,4 C 0,0 km/h (0 Bft)
15.09.2021 17:10 20,2 C 19,8 C 19,1 C 19,9 C 19,4 C 0,0 C 87 % 93 % 1008,7 hPa 0,0 l/m 0,0 km/h (0 Bft) S-SO 157 0 min 18,0 C 19,4 C 0,0 km/h (0 Bft)
15.09.2021 17:15 20,3 C 19,8 C 19,2 C 20,0 C 19,4 C 0,0 C 87 % 93 % 1008,4 hPa 0,0 l/m 0,0 km/h (0 Bft) S-SO 157 0 min 18,1 C 19,4 C 0,0 km/h (0 Bft)
15.09.2021 17:20 20,3 C 19,8 C 19,1 C 20,0 C 19,3 C 0,0 C 87 % 93 % 1008,4 hPa 0,0 l/m 0,0 km/h (0 Bft) S-SO 157 0 min 18,1 C 19,3 C 0,0 km/h (0 Bft)
15.09.2021 17:25 20,2 C 19,8 C 19,1 C 19,9 C 19,2 C 0,0 C 87 % 94 % 1008,4 hPa 0,0 l/m 0,0 km/h (0 Bft) S-SO 157 0 min 18,0 C 19,2 C 0,0 km/h (0 Bft)
15.09.2021 17:30 20,1 C 19,8 C 19,1 C 19,8 C 19,2 C 0,0 C 87 % 94 % 1008,4 hPa 0,0 l/m 0,6 km/h (0 Bft) O-NO 67 0 min 17,9 C 19,2 C 3,7 km/h (1 Bft)
15.09.2021 17:35 20,0 C 19,9 C 19,1 C 19,7 C 19,1 C 0,0 C 87 % 94 % 1008,2 hPa 0,0 l/m 1,9 km/h (1 Bft) O-NO 67 0 min 17,8 C 19,1 C 4,2 km/h (1 Bft)
15.09.2021 17:40 20,1 C 19,9 C 19,0 C 19,8 C 19,2 C 0,0 C 87 % 94 % 1008,2 hPa 0,0 l/m 2,1 km/h (1 Bft) O 90 0 min 17,9 C 19,2 C 3,4 km/h (1 Bft)
15.09.2021 17:45 20,0 C 19,9 C 18,9 C 19,7 C 19,2 C 0,0 C 87 % 94 % 1008,2 hPa 0,0 l/m 0,8 km/h (0 Bft) O-SO 112 0 min 17,8 C 19,2 C 4,3 km/h (1 Bft)
15.09.2021 17:50 19,9 C 19,9 C 18,9 C 19,6 C 19,1 C 0,0 C 87 % 94 % 1008,2 hPa 0,0 l/m 0,3 km/h (0 Bft) NO 45 0 min 17,7 C 19,1 C 2,4 km/h (1 Bft)
15.09.2021 17:55 19,8 C 19,9 C 18,9 C 19,6 C 19,2 C 0,0 C 87 % 94 % 1008,1 hPa 0,0 l/m 0,2 km/h (0 Bft) NO 45 0 min 17,6 C 19,2 C 0,0 km/h (0 Bft)
15.09.2021 18:00 19,8 C 19,9 C 18,9 C 19,6 C 19,2 C 0,0 C 87 % 94 % 1008,1 hPa 0,0 l/m 0,3 km/h (0 Bft) NO 45 0 min 17,6 C 19,2 C 0,0 km/h (0 Bft)
15.09.2021 18:05 19,9 C 19,9 C 18,9 C 19,7 C 19,3 C 0,0 C 87 % 94 % 1008,1 hPa 0,0 l/m 0,2 km/h (0 Bft) O-SO 112 0 min 17,7 C 19,3 C 0,0 km/h (0 Bft)
15.09.2021 18:10 19,9 C 19,9 C 18,9 C 19,7 C 19,3 C 0,0 C 87 % 94 % 1008,1 hPa 0,0 l/m 0,2 km/h (0 Bft) O-SO 112 0 min 17,7 C 19,3 C 0,0 km/h (0 Bft)
15.09.2021 18:15 19,9 C 19,9 C 19,0 C 19,7 C 19,2 C 0,0 C 87 % 94 % 1008,1 hPa 0,0 l/m 0,0 km/h (0 Bft) O-SO 112 0 min 17,7 C 19,2 C 0,0 km/h (0 Bft)
15.09.2021 18:20 19,8 C 20,0 C 18,9 C 19,6 C 19,2 C 0,0 C 87 % 94 % 1008,1 hPa 0,0 l/m 0,0 km/h (0 Bft) O-SO 112 0 min 17,6 C 19,2 C 0,0 km/h (0 Bft)
15.09.2021 18:25 19,7 C 20,0 C 18,9 C 19,5 C 19,2 C 0,0 C 87 % 94 % 1008,1 hPa 0,0 l/m 0,0 km/h (0 Bft) O-SO 112 0 min 17,5 C 19,2 C 0,0 km/h (0 Bft)
15.09.2021 18:30 19,8 C 20,0 C 19,0 C 19,6 C 19,3 C 0,0 C 87 % 94 % 1008,1 hPa 0,0 l/m 0,0 km/h (0 Bft) O-SO 112 0 min 17,6 C 19,3 C 0,0 km/h (0 Bft)
15.09.2021 18:35 19,7 C 20,0 C 18,9 C 19,6 C 19,3 C 0,0 C 87 % 94 % 1008,1 hPa 0,0 l/m 0,0 km/h (0 Bft) O-SO 112 0 min 17,5 C 19,3 C 0,0 km/h (0 Bft)
15.09.2021 18:40 19,7 C 20,0 C 18,9 C 19,5 C 19,2 C 0,0 C 87 % 94 % 1008,1 hPa 0,0 l/m 0,0 km/h (0 Bft) O-SO 112 0 min 17,5 C 19,2 C 0,0 km/h (0 Bft)
15.09.2021 18:45 19,7 C 20,0 C 18,8 C 19,5 C 19,1 C 0,0 C 87 % 94 % 1008,1 hPa 0,0 l/m 0,0 km/h (0 Bft) O-SO 112 0 min 17,5 C 19,1 C 0,0 km/h (0 Bft)
15.09.2021 18:50 19,6 C 20,0 C 18,8 C 19,4 C 19,0 C 0,0 C 87 % 94 % 1008,1 hPa 0,0 l/m 0,0 km/h (0 Bft) O-SO 112 0 min 17,4 C 19,0 C 0,0 km/h (0 Bft)
15.09.2021 18:55 19,5 C 20,0 C 18,7 C 19,3 C 18,9 C 0,0 C 87 % 94 % 1008,2 hPa 0,0 l/m 0,0 km/h (0 Bft) O-SO 112 0 min 17,3 C 18,9 C 0,0 km/h (0 Bft)
15.09.2021 19:00 19,5 C 20,0 C 18,7 C 19,3 C 18,8 C 0,0 C 87 % 94 % 1008,2 hPa 0,0 l/m 0,0 km/h (0 Bft) O-SO 112 0 min 17,3 C 18,8 C 0,0 km/h (0 Bft)
15.09.2021 19:05 19,3 C 20,0 C 18,6 C 19,1 C 18,7 C 0,0 C 87 % 94 % 1008,2 hPa 0,0 l/m 0,0 km/h (0 Bft) O-SO 112 0 min 17,1 C 18,7 C 0,0 km/h (0 Bft)
15.09.2021 19:10 19,2 C 20,0 C 18,5 C 19,0 C 18,7 C 0,0 C 87 % 94 % 1008,2 hPa 0,0 l/m 0,0 km/h (0 Bft) O-SO 112 0 min 17,0 C 18,7 C 0,0 km/h (0 Bft)
15.09.2021 19:15 19,2 C 20,0 C 18,5 C 19,0 C 18,7 C 0,0 C 87 % 94 % 1008,1 hPa 0,0 l/m 0,0 km/h (0 Bft) O-SO 112 0 min 17,0 C 18,7 C 0,0 km/h (0 Bft)
15.09.2021 19:20 19,1 C 20,0 C 18,4 C 19,0 C 18,7 C 0,0 C 87 % 94 % 1008,1 hPa 0,7 l/m 0,0 km/h (0 Bft) O-SO 112 0 min 16,9 C 18,7 C 0,0 km/h (0 Bft)
15.09.2021 19:25 19,1 C 20,0 C 18,5 C 19,0 C 18,7 C 0,0 C 87 % 94 % 1008,1 hPa 0,0 l/m 0,0 km/h (0 Bft) O-SO 112 0 min 16,9 C 18,7 C 0,0 km/h (0 Bft)
15.09.2021 19:30 19,0 C 20,0 C 18,5 C 18,9 C 18,7 C 0,0 C 87 % 94 % 1008,1 hPa 0,0 l/m 0,0 km/h (0 Bft) O-SO 112 0 min 16,8 C 18,7 C 0,0 km/h (0 Bft)
15.09.2021 19:35 18,9 C 20,0 C 18,4 C 18,8 C 18,6 C 0,0 C 87 % 94 % 1008,0 hPa 0,0 l/m 0,0 km/h (0 Bft) O-SO 112 0 min 16,7 C 18,6 C 0,0 km/h (0 Bft)
15.09.2021 19:40 18,8 C 20,0 C 18,4 C 18,7 C 18,6 C 0,0 C 87 % 94 % 1008,0 hPa 0,0 l/m 0,0 km/h (0 Bft) O-SO 112 0 min 16,6 C 18,6 C 0,0 km/h (0 Bft)
15.09.2021 19:45 18,8 C 20,1 C 18,3 C 18,7 C 18,6 C 0,0 C 87 % 94 % 1008,0 hPa 0,0 l/m 0,0 km/h (0 Bft) O-SO 112 0 min 16,6 C 18,6 C 0,0 km/h (0 Bft)
15.09.2021 19:50 18,8 C 20,1 C 18,3 C 18,7 C 18,6 C 0,0 C 87 % 94 % 1008,0 hPa 0,0 l/m 0,0 km/h (0 Bft) O-SO 112 0 min 16,6 C 18,6 C 0,0 km/h (0 Bft)
15.09.2021 19:55 18,7 C 20,1 C 18,3 C 18,7 C 18,6 C 0,0 C 87 % 94 % 1008,2 hPa 0,0 l/m 0,0 km/h (0 Bft) O-SO 112 0 min 16,5 C 18,6 C 0,0 km/h (0 Bft)
15.09.2021 20:00 18,7 C 20,1 C 18,3 C 18,7 C 18,6 C 0,0 C 87 % 94 % 1008,2 hPa 0,0 l/m 0,0 km/h (0 Bft) O-SO 112 0 min 16,5 C 18,6 C 0,0 km/h (0 Bft)
15.09.2021 20:05 18,7 C 20,1 C 18,3 C 18,7 C 18,6 C 0,0 C 87 % 94 % 1008,2 hPa 0,0 l/m 0,0 km/h (0 Bft) O-SO 112 0 min 16,5 C 18,6 C 0,0 km/h (0 Bft)
15.09.2021 20:10 18,7 C 20,1 C 18,3 C 18,7 C 18,6 C 0,0 C 87 % 94 % 1008,2 hPa 0,0 l/m 0,0 km/h (0 Bft) O-SO 112 0 min 16,5 C 18,6 C 0,0 km/h (0 Bft)
15.09.2021 20:15 18,5 C 20,1 C 18,3 C 18,6 C 18,6 C 0,1 C 87 % 94 % 1008,4 hPa 0,0 l/m 0,3 km/h (0 Bft) S 180 0 min 16,3 C 18,6 C 0,0 km/h (0 Bft)
15.09.2021 20:20 18,4 C 20,1 C 18,3 C 18,6 C 18,6 C 0,2 C 87 % 94 % 1008,4 hPa 0,0 l/m 0,5 km/h (0 Bft) S-SW 202 0 min 16,2 C 18,6 C 6,8 km/h (2 Bft)
15.09.2021 20:25 18,5 C 20,1 C 18,3 C 18,5 C 18,5 C 0,0 C 87 % 94 % 1008,4 hPa 0,0 l/m 0,6 km/h (0 Bft) S-SO 157 0 min 16,3 C 18,5 C 1,9 km/h (1 Bft)
15.09.2021 20:30 18,4 C 20,1 C 18,2 C 18,5 C 18,5 C 0,1 C 87 % 94 % 1008,4 hPa 0,0 l/m 0,8 km/h (0 Bft) S-SO 157 0 min 16,2 C 18,5 C 0,0 km/h (0 Bft)
15.09.2021 20:35 18,3 C 20,1 C 18,2 C 18,4 C 18,4 C 0,1 C 87 % 94 % 1008,4 hPa 0,0 l/m 0,8 km/h (0 Bft) S 180 0 min 16,1 C 18,4 C 2,4 km/h (1 Bft)
15.09.2021 20:40 18,2 C 20,1 C 18,2 C 18,4 C 18,4 C 0,2 C 87 % 94 % 1008,4 hPa 0,0 l/m 1,1 km/h (1 Bft) NW 315 0 min 16,0 C 18,4 C 3,5 km/h (1 Bft)
15.09.2021 20:45 18,3 C 20,1 C 18,1 C 18,3 C 18,3 C 0,0 C 87 % 94 % 1008,4 hPa 0,7 l/m 1,1 km/h (1 Bft) S 180 0 min 16,1 C 18,3 C 1,8 km/h (1 Bft)
15.09.2021 20:50 18,2 C 20,1 C 18,1 C 18,3 C 18,3 C 0,1 C 87 % 94 % 1008,4 hPa 0,0 l/m 0,8 km/h (0 Bft) S 180 0 min 16,0 C 18,3 C 0,0 km/h (0 Bft)
15.09.2021 20:55 18,1 C 20,1 C 18,1 C 18,3 C 18,3 C 0,2 C 87 % 94 % 1008,2 hPa 0,0 l/m 0,0 km/h (0 Bft) W-SW 247 0 min 15,9 C 18,3 C 0,0 km/h (0 Bft)
15.09.2021 21:00 18,0 C 20,1 C 18,1 C 18,3 C 18,3 C 0,3 C 87 % 94 % 1008,2 hPa 0,0 l/m 0,0 km/h (0 Bft) SW 225 0 min 15,8 C 18,3 C 0,0 km/h (0 Bft)
15.09.2021 21:05 18,0 C 20,1 C 18,0 C 18,2 C 18,2 C 0,2 C 87 % 94 % 1008,2 hPa 0,0 l/m 0,0 km/h (0 Bft) SW 225 0 min 15,8 C 18,2 C 0,0 km/h (0 Bft)
15.09.2021 21:10 18,0 C 20,1 C 17,9 C 18,2 C 18,2 C 0,2 C 87 % 94 % 1008,2 hPa 0,0 l/m 0,0 km/h (0 Bft) W-SW 247 0 min 15,8 C 18,2 C 0,0 km/h (0 Bft)
15.09.2021 21:15 17,9 C 20,1 C 17,9 C 18,0 C 18,0 C 0,1 C 87 % 94 % 1008,2 hPa 0,0 l/m 0,0 km/h (0 Bft) SW 225 0 min 15,7 C 18,0 C 0,0 km/h (0 Bft)
15.09.2021 21:20 17,8 C 20,1 C 17,9 C 18,0 C 18,0 C 0,2 C 87 % 94 % 1008,2 hPa 0,0 l/m 0,0 km/h (0 Bft) SW 225 0 min 15,6 C 18,0 C 0,0 km/h (0 Bft)
15.09.2021 21:25 17,9 C 20,1 C 17,9 C 18,0 C 18,0 C 0,1 C 87 % 94 % 1008,2 hPa 0,0 l/m 0,0 km/h (0 Bft) SO 135 0 min 15,7 C 18,0 C 0,0 km/h (0 Bft)
15.09.2021 21:30 17,7 C 20,2 C 17,8 C 18,0 C 18,0 C 0,3 C 87 % 94 % 1008,2 hPa 0,0 l/m 0,0 km/h (0 Bft) O 90 0 min 15,5 C 18,0 C 0,0 km/h (0 Bft)
15.09.2021 21:35 17,7 C 20,3 C 17,8 C 17,9 C 17,9 C 0,2 C 87 % 94 % 1008,3 hPa 0,0 l/m 0,0 km/h (0 Bft) O 90 0 min 15,5 C 17,9 C 0,0 km/h (0 Bft)
15.09.2021 21:40 17,6 C 20,3 C 17,7 C 17,9 C 17,9 C 0,3 C 87 % 94 % 1008,3 hPa 0,0 l/m 0,0 km/h (0 Bft) SO 135 0 min 15,4 C 17,9 C 0,0 km/h (0 Bft)
15.09.2021 21:45 17,6 C 20,3 C 17,7 C 17,9 C 17,9 C 0,3 C 87 % 94 % 1008,3 hPa 0,0 l/m 0,0 km/h (0 Bft) S-SO 157 0 min 15,4 C 17,9 C 0,0 km/h (0 Bft)
15.09.2021 21:50 17,5 C 20,3 C 17,6 C 17,8 C 17,8 C 0,3 C 87 % 94 % 1008,3 hPa 0,0 l/m 0,0 km/h (0 Bft) SW 225 0 min 15,3 C 17,8 C 0,0 km/h (0 Bft)
15.09.2021 21:55 17,5 C 20,3 C 17,6 C 17,7 C 17,7 C 0,2 C 87 % 94 % 1008,3 hPa 0,0 l/m 0,0 km/h (0 Bft) S-SW 202 0 min 15,3 C 17,7 C 0,0 km/h (0 Bft)
15.09.2021 22:00 17,5 C 20,3 C 17,6 C 17,7 C 17,7 C 0,2 C 87 % 94 % 1008,3 hPa 0,0 l/m 0,0 km/h (0 Bft) S-SW 202 0 min 15,3 C 17,7 C 0,0 km/h (0 Bft)
15.09.2021 22:05 17,4 C 20,3 C 17,6 C 17,7 C 17,7 C 0,3 C 87 % 94 % 1008,3 hPa 0,0 l/m 0,0 km/h (0 Bft) S-SO 157 0 min 15,2 C 17,7 C 0,0 km/h (0 Bft)
15.09.2021 22:10 17,3 C 20,3 C 17,6 C 17,7 C 17,7 C 0,4 C 87 % 94 % 1008,3 hPa 0,0 l/m 0,0 km/h (0 Bft) SW 225 0 min 15,1 C 17,7 C 0,0 km/h (0 Bft)
15.09.2021 22:15 17,2 C 20,3 C 17,6 C 17,7 C 17,7 C 0,5 C 87 % 94 % 1008,2 hPa 0,0 l/m 0,0 km/h (0 Bft) S 180 0 min 15,0 C 17,7 C 0,0 km/h (0 Bft)
15.09.2021 22:20 17,3 C 20,3 C 17,5 C 17,7 C 17,7 C 0,4 C 87 % 94 % 1008,2 hPa 0,0 l/m 0,0 km/h (0 Bft) S 180 0 min 15,1 C 17,7 C 0,0 km/h (0 Bft)
15.09.2021 22:25 17,1 C 20,3 C 17,5 C 17,7 C 17,7 C 0,6 C 87 % 94 % 1008,2 hPa 0,0 l/m 0,0 km/h (0 Bft) S 180 0 min 14,9 C 17,7 C 0,0 km/h (0 Bft)
15.09.2021 22:30 17,1 C 20,3 C 17,5 C 17,7 C 17,7 C 0,6 C 87 % 94 % 1008,2 hPa 0,0 l/m 0,0 km/h (0 Bft) W-SW 247 0 min 14,9 C 17,7 C 0,0 km/h (0 Bft)
15.09.2021 22:35 17,1 C 20,3 C 17,5 C 17,7 C 17,7 C 0,6 C 87 % 94 % 1008,4 hPa 0,0 l/m 0,0 km/h (0 Bft) S 180 0 min 14,9 C 17,7 C 0,0 km/h (0 Bft)
15.09.2021 22:40 17,1 C 20,3 C 17,5 C 17,7 C 17,7 C 0,6 C 87 % 94 % 1008,4 hPa 0,0 l/m 0,0 km/h (0 Bft) SW 225 0 min 14,9 C 17,7 C 0,0 km/h (0 Bft)
15.09.2021 22:45 17,1 C 20,3 C 17,5 C 17,8 C 17,8 C 0,7 C 87 % 94 % 1008,4 hPa 0,0 l/m 0,0 km/h (0 Bft) SO 135 0 min 14,9 C 17,8 C 0,0 km/h (0 Bft)
15.09.2021 22:50 17,0 C 20,3 C 17,5 C 17,8 C 17,8 C 0,8 C 87 % 94 % 1008,4 hPa 0,0 l/m 0,0 km/h (0 Bft) SO 135 0 min 14,8 C 17,8 C 0,0 km/h (0 Bft)
15.09.2021 22:55 16,9 C 20,3 C 17,5 C 17,7 C 17,7 C 0,8 C 87 % 94 % 1008,4 hPa 0,0 l/m 0,0 km/h (0 Bft) S-SO 157 0 min 14,7 C 17,7 C 0,0 km/h (0 Bft)
15.09.2021 23:00 16,8 C 20,3 C 17,5 C 17,7 C 17,7 C 0,9 C 87 % 94 % 1008,4 hPa 0,0 l/m 0,0 km/h (0 Bft) W 270 0 min 14,6 C 17,7 C 0,0 km/h (0 Bft)
15.09.2021 23:05 16,9 C 20,3 C 17,5 C 17,7 C 17,7 C 0,8 C 87 % 94 % 1008,4 hPa 0,0 l/m 0,0 km/h (0 Bft) S-SO 157 0 min 14,7 C 17,7 C 0,0 km/h (0 Bft)
15.09.2021 23:10 16,8 C 20,3 C 17,5 C 17,7 C 17,7 C 0,9 C 87 % 94 % 1008,4 hPa 0,0 l/m 0,0 km/h (0 Bft) W-SW 247 0 min 14,6 C 17,7 C 0,0 km/h (0 Bft)
15.09.2021 23:15 16,8 C 20,3 C 17,5 C 17,7 C 17,7 C 0,9 C 87 % 94 % 1008,4 hPa 0,0 l/m 0,0 km/h (0 Bft) SW 225 0 min 14,6 C 17,7 C 0,0 km/h (0 Bft)
15.09.2021 23:20 16,8 C 20,3 C 17,5 C 17,7 C 17,7 C 0,9 C 87 % 94 % 1008,4 hPa 0,0 l/m 0,0 km/h (0 Bft) SO 135 0 min 14,6 C 17,7 C 0,0 km/h (0 Bft)
15.09.2021 23:25 16,7 C 20,3 C 17,4 C 17,7 C 17,7 C 1,0 C 87 % 93 % 1008,4 hPa 0,0 l/m 0,0 km/h (0 Bft) S 180 0 min 14,5 C 17,7 C 0,0 km/h (0 Bft)
15.09.2021 23:30 16,7 C 20,3 C 17,5 C 17,7 C 17,7 C 1,0 C 87 % 94 % 1008,4 hPa 0,0 l/m 0,0 km/h (0 Bft) S-SO 157 0 min 14,5 C 17,7 C 0,0 km/h (0 Bft)
15.09.2021 23:35 16,7 C 20,3 C 17,4 C 17,7 C 17,7 C 1,0 C 87 % 93 % 1008,1 hPa 0,0 l/m 0,0 km/h (0 Bft) W-SW 247 0 min 14,5 C 17,7 C 0,0 km/h (0 Bft)
15.09.2021 23:40 16,6 C 20,3 C 17,4 C 17,7 C 17,7 C 1,1 C 87 % 93 % 1008,1 hPa 0,0 l/m 0,0 km/h (0 Bft) S 180 0 min 14,4 C 17,7 C 0,0 km/h (0 Bft)
15.09.2021 23:45 16,6 C 20,4 C 17,5 C 17,7 C 17,7 C 1,1 C 87 % 94 % 1008,1 hPa 0,0 l/m 0,0 km/h (0 Bft) S-SO 157 0 min 14,4 C 17,7 C 0,0 km/h (0 Bft)
15.09.2021 23:50 16,7 C 20,4 C 17,4 C 17,7 C 17,7 C 1,0 C 87 % 93 % 1008,1 hPa 0,0 l/m 0,0 km/h (0 Bft) O-SO 112 0 min 14,5 C 17,7 C 0,0 km/h (0 Bft)
15.09.2021 23:55 16,7 C 20,4 C 17,4 C 17,7 C 17,7 C 1,0 C 87 % 93 % 1008,2 hPa 0,0 l/m 0,0 km/h (0 Bft) SO 135 0 min 14,5 C 17,7 C 0,0 km/h (0 Bft)
_ Min-Zeit 01:25 09:55 01:05 00:55 00:55 00:00 10:45 10:45 19:35 - 00:00 - - - 01:25 00:55 00:00
Minimum _ 14,7 C 18,3 C 14,6 C 14,7 C 14,4 C 0,0 C 78 % 84 % 1008,0 hPa - 0,0 km/h (0 Bft) - - - 12,6 C 14,4 C 0,0 km/h (0 Bft)
_ Max-Zeit 13:20 23:45 13:15 13:20 13:20 09:35 07:55 17:25 00:55 11:15 17:40 - - 09:10 13:15 13:20 20:20
Maximum _ 22,7 C 20,4 C 20,6 C 25,1 C 25,1 C 4,0 C 88 % 94 % 1013,0 hPa 0,7 l/m 2,1 km/h
O (1 Bft)
- - 5 min 19,6 C 25,1 C 6,8 km/h
S-SW (2 Bft)
Durchschnitt _ 18,2 C 19,3 C 17,5 C 18,6 C 18,4 C 0,5 C 86 % 91 % 1010,2 hPa #3,4 l/m 0,0 km/h (0 Bft) O-NO - #55 min. 15,8 C 18,4 C 0,1 km/h (0 Bft)
2021 www.wetterstation-wechselburg.de